Flight Track Log - Related Links

Times and Time Zones

All times are in EDT time to prevent confusion due to time zone crossing. See the DAL1562 flight status page for this flight to view local times or setup timezone preferences in your user account.

Time Position Orientation Groundspeed Altitude Reporting Facility
EDT Latitude Longitude Course Direction KTS MPH feet Rate Location/Type
Fri 03:54:32 PM 42.8778 -85.5567 345° North 199 229 2,400  Level Chicago Center
Fri 03:55:34 PM 42.9406 -85.5792 345° North 255 293 6,400 3,581 Climbing Chicago Center
Fri 03:56:36 PM 42.9675 -85.4808 69° East 286 329 9,800 2,806 Climbing Chicago Center
Fri 03:57:38 PM 42.9906 -85.3650 75° East 314 361 12,200 2,371 Climbing Chicago Center
Fri 03:58:40 PM 43.0167 -85.2200 76° East 386 444 14,700 1,403 Climbing Chicago Center
Fri 03:59:42 PM 43.0444 -85.0719 76° East 403 464 15,100 194 Climbing Chicago Center
Fri 04:00:44 PM 43.0711 -84.9233 76° East 403 464 15,100  Level Chicago Center
Fri 04:01:46 PM 43.0658 -84.7406 92° East 409 471 15,100  Level Chicago Center
Fri 04:02:48 PM 43.0339 -84.5950 107° East 403 464 15,100  Level Chicago Center
Fri 04:03:50 PM 43.0011 -84.4486 107° East 403 464 15,100  Level Chicago Center
Fri 04:04:52 PM 42.9683 -84.3019 107° East 404 465 15,100  Level Chicago Center
Fri 04:05:15 PM 42.9522 -84.2456 111° Southeast 401 461 15,100  Level Cleveland Center
Fri 04:05:36 PM 42.9397 -84.1794 104° East 402 463 15,100  Level Cleveland Center
Fri 04:06:15 PM 42.9192 -84.1017 110° East 406 467 15,100  Level Cleveland Center
Fri 04:06:37 PM 42.9047 -84.0328 106° East 408 470 15,100 -300 Level Cleveland Center
Fri 04:07:15 PM 42.8842 -83.9525 109° East 411 473 14,800 -1,475 Descending Cleveland Center
Fri 04:07:38 PM 42.8694 -83.8781 105° East 404 465 13,600 -2,200 Descending Cleveland Center
Fri 04:08:15 PM 42.8528 -83.8119 109° East 401 461 12,600 -1,475 Descending Cleveland Center
Fri 04:08:39 PM 42.8294 -83.7428 115° Southeast 383 441 12,100 -500 Descending Cleveland Center
Fri 04:09:15 PM 42.7889 -83.7011 143° Southeast 379 436 12,100  Level Cleveland Center
Fri 04:09:41 PM 42.7333 -83.6728 159° South 389 448 12,100 -100 Level Cleveland Center
Fri 04:10:15 PM 42.6883 -83.6453 156° South 368 423 12,000  Descending Cleveland Center
Fri 04:10:39 PM 42.6486 -83.6211 156° South 338 389 12,100 136 Climbing FAA TRACON SMA TRACON (SMA)
Fri 04:10:59 PM 42.6175 -83.6031 157° South 315 362 12,100  Level FAA TRACON SMA TRACON (SMA)
Fri 04:11:19 PM 42.5944 -83.5894 157° South 295 339 12,100  Level FAA TRACON SMA TRACON (SMA)
Fri 04:11:39 PM 42.5683 -83.5733 156° South 283 326 12,100  Level FAA TRACON SMA TRACON (SMA)
Fri 04:11:59 PM 42.5469 -83.5606 156° South 278 320 12,100  Level FAA TRACON SMA TRACON (SMA)
Fri 04:12:19 PM 42.5250 -83.5475 156° South 278 320 12,100  Level FAA TRACON SMA TRACON (SMA)
Fri 04:12:39 PM 42.4972 -83.5317 157° South 281 323 12,100  Level FAA TRACON SMA TRACON (SMA)
Fri 04:12:59 PM 42.4750 -83.5189 157° South 281 323 12,100  Level FAA TRACON SMA TRACON (SMA)
Fri 04:13:15 PM 42.4603 -83.5131 164° South 292 336 12,100  Level Cleveland Center
Fri 04:13:45 PM 42.4153 -83.4886 158° South 281 323 12,100  Level Cleveland Center
Fri 04:14:15 PM 42.3864 -83.4731 158° South 286 329 12,100  Level Cleveland Center
Fri 04:14:39 PM 42.3533 -83.4514 154° Southeast 276 318 12,100 -136 Level FAA TRACON SMA TRACON (SMA)
Fri 04:14:59 PM 42.3306 -83.4472 172° South 270 311 12,000 -600 Descending FAA TRACON SMA TRACON (SMA)
Fri 04:15:19 PM 42.3078 -83.4450 176° South 267 307 11,700 -1,050 Descending FAA TRACON SMA TRACON (SMA)
Fri 04:15:39 PM 42.2800 -83.4436 178° South 262 302 11,300 -1,050 Descending FAA TRACON SMA TRACON (SMA)
Fri 04:15:59 PM 42.2594 -83.4464 186° South 239 275 11,000 -1,050 Descending FAA TRACON SMA TRACON (SMA)
Fri 04:16:19 PM 42.2425 -83.4569 205° Southwest 213 245 10,600 -1,350 Descending FAA TRACON SMA TRACON (SMA)
Fri 04:16:39 PM 42.2233 -83.4708 208° Southwest 212 244 10,100 -1,650 Descending FAA TRACON SMA TRACON (SMA)
Fri 04:16:59 PM 42.2078 -83.4836 211° Southwest 213 245 9,500 -1,950 Descending FAA TRACON SMA TRACON (SMA)
Fri 04:17:19 PM 42.1881 -83.4994 211° Southwest 213 245 8,800 -2,100 Descending FAA TRACON SMA TRACON (SMA)
Fri 04:17:39 PM 42.1722 -83.5119 210° Southwest 212 244 8,100 -2,100 Descending FAA TRACON SMA TRACON (SMA)
Fri 04:17:59 PM 42.1569 -83.5244 211° Southwest 211 243 7,400 -2,195 Descending FAA TRACON SMA TRACON (SMA)
Fri 04:18:20 PM 42.1381 -83.5408 213° Southwest 211 243 6,600 -2,100 Descending FAA TRACON SMA TRACON (SMA)
Fri 04:18:39 PM 42.1250 -83.5528 214° Southwest 210 242 6,000 -1,846 Descending FAA TRACON SMA TRACON (SMA)
Fri 04:18:59 PM 42.1086 -83.5683 215° Southwest 208 239 5,400 -1,350 Descending FAA TRACON SMA TRACON (SMA)
Fri 04:19:19 PM 42.0944 -83.5819 215° Southwest 205 236 5,100 -450 Descending FAA TRACON SMA TRACON (SMA)
Fri 04:19:39 PM 42.0747 -83.5797 175° South 212 244 5,100  Level FAA TRACON SMA TRACON (SMA)
Fri 04:19:59 PM 42.0597 -83.5619 139° Southeast 209 241 5,100  Level FAA TRACON SMA TRACON (SMA)
Fri 04:20:19 PM 42.0514 -83.5364 114° Southeast 206 237 5,100 -300 Level FAA TRACON SMA TRACON (SMA)
Fri 04:20:39 PM 42.0564 -83.5144 73° East 197 227 4,900 -1,029 Descending FAA TRACON SMA TRACON (SMA)
Fri 04:20:54 PM 42.0625 -83.4975 64° Northeast 198 228 4,500 -1,600 Descending Cleveland Center

Login

Don't have an account? Register now (free) for customized features, flight alerts, and more!